Time;durP1;ratioP1;P1;durP2;ratioP2;P2;SDS_P1;SDS_P2;PMS_P1;PMS_P2;Temp;Humidity;BMP_temperature;BMP_pressure;BME280_temperature;BME280_humidity;BME280_pressure;Samples;Min_cycle;Max_cycle;Signal;HPM_P1;HPM_P2
2024/01/19 00:00:52;;;;;;;23.95;11.60;;;-0.80;99.90;;;;;;5031075;28;20073;-44
2024/01/19 00:03:19;;;;;;;23.08;12.23;;;-0.80;99.90;;;;;;5032503;28;20502;-40
2024/01/19 00:05:46;;;;;;;20.67;11.95;;;-0.90;99.90;;;;;;5032951;28;20053;-48
2024/01/19 00:08:13;;;;;;;23.73;11.70;;;-0.90;99.90;;;;;;5037468;28;20077;-44
2024/01/19 00:10:40;;;;;;;24.45;12.10;;;-0.90;99.90;;;;;;5037869;28;20426;-46
2024/01/19 00:13:07;;;;;;;26.50;12.98;;;-0.90;99.90;;;;;;5038556;28;20048;-47
2024/01/19 00:15:34;;;;;;;23.65;12.52;;;-0.80;99.90;;;;;;5033500;28;20060;-45
2024/01/19 00:18:08;;;;;;;24.38;13.27;;;-0.90;99.90;;;;;;5030493;28;20063;-41
2024/01/19 00:20:36;;;;;;;27.42;15.20;;;-0.90;99.90;;;;;;5033586;28;20037;-38
2024/01/19 00:23:03;;;;;;;24.48;14.23;;;-0.80;99.90;;;;;;5034925;28;20073;-45
2024/01/19 00:25:30;;;;;;;25.50;13.13;;;-0.90;99.90;;;;;;5033229;28;20045;-44
2024/01/19 00:27:57;;;;;;;27.00;13.73;;;-0.90;99.90;;;;;;5032546;28;20130;-43
2024/01/19 00:30:24;;;;;;;23.85;13.05;;;-0.90;99.90;;;;;;5031017;28;20517;-44
2024/01/19 00:32:51;;;;;;;26.48;14.13;;;-0.90;99.90;;;;;;5030859;28;20041;-44
2024/01/19 00:35:18;;;;;;;24.73;12.85;;;-0.80;99.90;;;;;;5034491;28;20057;-43
2024/01/19 00:37:48;;;;;;;25.95;13.82;;;-0.80;99.90;;;;;;5029329;28;20049;-42
2024/01/19 00:40:15;;;;;;;25.83;13.68;;;-0.90;99.90;;;;;;5033965;28;20034;-42
2024/01/19 00:42:42;;;;;;;24.17;12.57;;;-0.90;99.90;;;;;;5030848;28;20049;-47
2024/01/19 00:45:10;;;;;;;28.88;14.02;;;-0.90;99.90;;;;;;5032706;28;20056;-41
2024/01/19 00:47:38;;;;;;;26.35;13.80;;;-0.80;99.90;;;;;;5030555;28;20056;-41
2024/01/19 00:50:08;;;;;;;27.33;13.60;;;-0.80;99.90;;;;;;5032574;28;20525;-42
2024/01/19 00:52:35;;;;;;;27.25;14.90;;;-0.80;99.90;;;;;;5027435;28;20280;-50
2024/01/19 00:55:02;;;;;;;29.15;14.55;;;-0.80;99.90;;;;;;5031354;28;20482;-42
2024/01/19 00:57:29;;;;;;;29.88;14.82;;;-0.80;99.90;;;;;;5032196;28;20042;-41
2024/01/19 00:59:56;;;;;;;24.58;13.13;;;-0.90;99.90;;;;;;5031292;28;20394;-48
2024/01/19 01:02:27;;;;;;;26.52;15.43;;;-0.80;99.90;;;;;;5033168;28;20045;-43
2024/01/19 01:04:57;;;;;;;30.92;14.50;;;-0.80;99.90;;;;;;5029188;28;20132;-39
2024/01/19 01:07:23;;;;;;;25.15;13.52;;;-0.90;99.90;;;;;;5031211;28;20071;-42
2024/01/19 01:09:50;;;;;;;27.55;14.48;;;-0.90;99.90;;;;;;5032983;28;20141;-41
2024/01/19 01:12:17;;;;;;;27.98;14.07;;;-0.90;99.90;;;;;;5033242;28;20045;-44
2024/01/19 01:14:46;;;;;;;30.88;15.30;;;-0.90;99.90;;;;;;5033382;28;20048;-42
2024/01/19 01:17:14;;;;;;;29.35;14.23;;;-0.80;99.90;;;;;;5032249;28;20103;-40
2024/01/19 01:19:40;;;;;;;27.38;14.13;;;-0.90;99.90;;;;;;5033300;28;20491;-44
2024/01/19 01:22:09;;;;;;;25.95;14.55;;;-0.90;99.90;;;;;;5038900;28;20338;-43
2024/01/19 01:24:36;;;;;;;29.65;15.02;;;-0.90;99.90;;;;;;5027445;28;20458;-43
2024/01/19 01:27:03;;;;;;;27.88;15.30;;;-0.90;99.90;;;;;;5035050;28;20113;-42
2024/01/19 01:29:30;;;;;;;24.70;13.98;;;-0.90;99.90;;;;;;5032355;28;20146;-43
2024/01/19 01:31:57;;;;;;;29.92;14.10;;;-0.90;99.90;;;;;;5033133;28;20072;-45
2024/01/19 01:34:24;;;;;;;26.38;13.60;;;-0.90;99.90;;;;;;5031463;28;20315;-43
2024/01/19 01:36:51;;;;;;;30.38;14.60;;;-0.90;99.90;;;;;;5033139;28;20038;-41
2024/01/19 01:39:18;;;;;;;27.80;15.25;;;-1.00;99.90;;;;;;5032316;28;20041;-46
2024/01/19 01:41:46;;;;;;;27.92;14.23;;;-1.00;99.90;;;;;;5032092;28;20046;-42
2024/01/19 01:44:13;;;;;;;28.27;14.68;;;-1.00;99.90;;;;;;5034378;28;20092;-42
2024/01/19 01:46:40;;;;;;;31.55;14.50;;;-1.00;99.90;;;;;;5030596;28;20037;-49
2024/01/19 01:49:09;;;;;;;31.75;15.65;;;-1.00;99.90;;;;;;5032821;28;20045;-43
2024/01/19 01:51:36;;;;;;;28.70;15.70;;;-1.10;99.90;;;;;;5030369;28;20702;-49
2024/01/19 01:54:05;;;;;;;27.70;14.27;;;-1.10;99.90;;;;;;5033716;28;20052;-44
2024/01/19 01:56:32;;;;;;;28.17;14.88;;;-1.20;99.90;;;;;;5032379;28;20072;-41
2024/01/19 01:59:00;;;;;;;29.10;15.40;;;-1.20;99.90;;;;;;5034979;28;20068;-43
2024/01/19 02:01:27;;;;;;;28.77;15.25;;;-1.20;99.90;;;;;;5035141;28;20100;-46
2024/01/19 02:03:56;;;;;;;30.25;15.95;;;-1.30;99.90;;;;;;5034139;28;20053;-44
2024/01/19 02:06:23;;;;;;;36.00;16.00;;;-1.30;99.90;;;;;;5031093;28;20049;-44
2024/01/19 02:08:50;;;;;;;29.73;15.25;;;-1.40;99.90;;;;;;5031862;28;20103;-44
2024/01/19 02:11:17;;;;;;;26.58;15.02;;;-1.40;99.90;;;;;;5031747;28;20067;-44
2024/01/19 02:13:44;;;;;;;28.48;14.65;;;-1.50;99.90;;;;;;5032323;28;20045;-45
2024/01/19 02:16:11;;;;;;;32.45;15.57;;;-1.50;99.90;;;;;;5030249;28;20174;-47
2024/01/19 02:18:39;;;;;;;31.40;15.32;;;-1.50;99.90;;;;;;5032943;28;20115;-40
2024/01/19 02:21:06;;;;;;;30.55;15.80;;;-1.50;99.90;;;;;;5033221;28;20055;-39
2024/01/19 02:23:43;;;;;;;25.15;14.20;;;-1.50;99.90;;;;;;5033627;28;20050;-43
2024/01/19 02:26:10;;;;;;;28.08;16.08;;;-1.60;99.90;;;;;;5034391;28;20497;-44
2024/01/19 02:28:37;;;;;;;31.50;15.57;;;-1.50;99.90;;;;;;5032380;28;20071;-43
2024/01/19 02:31:04;;;;;;;29.05;14.80;;;-1.50;99.90;;;;;;5032387;28;20446;-43
2024/01/19 02:33:31;;;;;;;31.20;15.00;;;-1.50;99.90;;;;;;5030867;28;20093;-41
2024/01/19 02:35:58;;;;;;;29.88;15.77;;;-1.50;99.90;;;;;;5036773;28;20064;-46
2024/01/19 02:38:25;;;;;;;32.72;15.98;;;-1.50;99.90;;;;;;5039021;28;20537;-46
2024/01/19 02:40:52;;;;;;;29.17;15.40;;;-1.60;99.90;;;;;;5038970;28;20049;-48
2024/01/19 02:43:19;;;;;;;28.13;15.10;;;-1.60;99.90;;;;;;5039997;28;20190;-46
2024/01/19 02:45:46;;;;;;;27.92;14.73;;;-1.70;99.90;;;;;;5037468;28;20045;-45
2024/01/19 02:48:13;;;;;;;28.55;15.15;;;-1.80;99.90;;;;;;5042550;28;20089;-44
2024/01/19 02:50:40;;;;;;;32.50;16.02;;;-1.80;99.90;;;;;;5038608;28;20129;-42
2024/01/19 02:53:07;;;;;;;28.80;15.35;;;-1.90;99.90;;;;;;5037411;28;20049;-43
2024/01/19 02:55:34;;;;;;;29.67;15.48;;;-2.00;99.90;;;;;;5039576;28;20525;-41
2024/01/19 02:58:01;;;;;;;29.42;16.35;;;-2.00;99.90;;;;;;5040601;28;20061;-43
2024/01/19 03:00:28;;;;;;;28.65;14.00;;;-2.10;99.90;;;;;;5037274;28;20110;-41
2024/01/19 03:02:55;;;;;;;28.33;15.25;;;-2.10;99.90;;;;;;5033145;28;20053;-41
2024/01/19 03:05:22;;;;;;;31.92;16.00;;;-2.20;99.90;;;;;;5029692;28;20302;-43
2024/01/19 03:07:49;;;;;;;34.97;16.52;;;-2.10;99.90;;;;;;5032771;28;20413;-45
2024/01/19 03:10:16;;;;;;;31.60;15.65;;;-2.10;99.90;;;;;;5034246;28;20105;-43
2024/01/19 03:12:43;;;;;;;32.10;15.95;;;-2.10;99.90;;;;;;5032610;28;20519;-44
2024/01/19 03:15:10;;;;;;;31.60;16.58;;;-2.00;99.90;;;;;;5034763;28;20061;-40
2024/01/19 03:17:37;;;;;;;35.38;17.55;;;-2.00;99.90;;;;;;5028760;28;20525;-43
2024/01/19 03:20:05;;;;;;;34.65;17.13;;;-1.90;99.90;;;;;;5034048;28;20246;-45
2024/01/19 03:22:33;;;;;;;31.13;16.42;;;-1.70;99.90;;;;;;5027375;28;20056;-41
2024/01/19 03:25:03;;;;;;;35.53;17.00;;;-1.70;99.90;;;;;;5031708;28;20050;-44
2024/01/19 03:27:29;;;;;;;32.97;17.00;;;-1.60;99.90;;;;;;5031012;28;20241;-46
2024/01/19 03:29:56;;;;;;;32.85;17.13;;;-1.60;99.90;;;;;;5032487;28;20581;-44
2024/01/19 03:32:23;;;;;;;31.92;16.60;;;-1.50;99.90;;;;;;5035591;28;20075;-42
2024/01/19 03:34:52;;;;;;;33.30;16.67;;;-1.50;99.90;;;;;;5036771;28;20321;-50
2024/01/19 03:37:19;;;;;;;35.90;17.15;;;-1.50;99.90;;;;;;5033640;28;20096;-42
2024/01/19 03:39:45;;;;;;;34.53;17.15;;;-1.40;99.90;;;;;;5035893;28;20073;-46
2024/01/19 03:42:13;;;;;;;34.60;17.20;;;-1.40;99.90;;;;;;5035492;28;20093;-45
2024/01/19 03:44:40;;;;;;;32.10;17.60;;;-1.40;99.90;;;;;;5031991;28;20068;-46
2024/01/19 03:47:07;;;;;;;34.95;17.58;;;-1.40;99.90;;;;;;5030227;28;20045;-42
2024/01/19 03:49:34;;;;;;;33.25;18.42;;;-1.30;99.90;;;;;;5032931;28;20045;-42
2024/01/19 03:52:03;;;;;;;33.90;17.63;;;-1.40;99.90;;;;;;5034446;28;20052;-44
2024/01/19 03:54:32;;;;;;;37.75;20.33;;;-1.30;99.90;;;;;;5033031;28;20056;-46
2024/01/19 03:57:02;;;;;;;40.22;20.65;;;-1.30;99.90;;;;;;5037458;28;20061;-40
2024/01/19 03:59:30;;;;;;;33.70;18.25;;;-1.30;99.90;;;;;;5030744;28;20052;-43
2024/01/19 04:01:57;;;;;;;42.17;20.17;;;-1.30;99.90;;;;;;5035090;28;20049;-44
2024/01/19 04:04:24;;;;;;;41.97;20.33;;;-1.20;99.90;;;;;;5029991;28;20049;-43
2024/01/19 04:06:52;;;;;;;43.58;19.75;;;-1.20;99.90;;;;;;5035582;28;20057;-44
2024/01/19 04:09:20;;;;;;;35.72;20.75;;;-1.20;99.90;;;;;;5035746;28;20098;-44
2024/01/19 04:11:47;;;;;;;42.55;22.20;;;-1.20;99.90;;;;;;5031810;28;20037;-45
2024/01/19 04:14:15;;;;;;;37.05;20.90;;;-1.20;99.90;;;;;;5035264;28;20259;-41
2024/01/19 04:16:42;;;;;;;38.97;22.33;;;-1.20;99.90;;;;;;5031546;28;20041;-42
2024/01/19 04:19:09;;;;;;;45.97;22.60;;;-1.20;99.90;;;;;;5036433;28;20469;-44
2024/01/19 04:21:36;;;;;;;42.05;22.10;;;-1.20;99.90;;;;;;5033103;28;20038;-41
2024/01/19 04:24:03;;;;;;;46.78;22.60;;;-1.20;99.90;;;;;;5033397;28;20116;-43
2024/01/19 04:26:31;;;;;;;48.17;22.33;;;-1.10;99.90;;;;;;5027262;28;20045;-47
2024/01/19 04:28:58;;;;;;;44.85;22.38;;;-1.10;99.90;;;;;;5032128;28;20057;-48
2024/01/19 04:31:25;;;;;;;46.88;21.67;;;-1.10;99.90;;;;;;5033772;28;20107;-43
2024/01/19 04:33:52;;;;;;;48.70;23.00;;;-1.10;99.90;;;;;;5032172;28;20056;-44
2024/01/19 04:36:22;;;;;;;47.00;24.63;;;-1.10;99.90;;;;;;5032801;28;20049;-44
2024/01/19 04:38:51;;;;;;;44.53;22.73;;;-1.10;99.90;;;;;;5031630;28;20127;-40
2024/01/19 04:41:18;;;;;;;41.28;21.65;;;-1.10;99.90;;;;;;5032440;28;20035;-43
2024/01/19 04:43:45;;;;;;;44.40;22.17;;;-1.20;99.90;;;;;;5032945;28;20053;-44
2024/01/19 04:46:12;;;;;;;45.47;23.05;;;-1.10;99.90;;;;;;5030378;28;20103;-41
2024/01/19 04:48:39;;;;;;;45.22;23.50;;;-1.10;99.90;;;;;;5033927;28;20068;-44
2024/01/19 04:51:07;;;;;;;46.85;21.58;;;-1.20;99.90;;;;;;5033516;28;20425;-44
2024/01/19 04:53:33;;;;;;;45.58;24.40;;;-1.10;99.90;;;;;;5033243;28;20041;-46
2024/01/19 04:56:04;;;;;;;41.10;22.23;;;-1.10;99.90;;;;;;5034832;28;21360;-42
2024/01/19 04:58:36;;;;;;;49.27;25.53;;;-1.10;99.90;;;;;;5032086;28;20034;-44
2024/01/19 05:01:04;;;;;;;46.40;23.58;;;-1.00;99.90;;;;;;5031079;28;20345;-44
2024/01/19 05:03:31;;;;;;;48.90;24.10;;;-1.10;99.90;;;;;;5029109;28;20450;-42
2024/01/19 05:05:58;;;;;;;52.10;24.13;;;-1.10;99.90;;;;;;5032417;28;20119;-46
2024/01/19 05:08:25;;;;;;;44.75;24.50;;;-1.00;99.90;;;;;;5032018;28;20057;-41
2024/01/19 05:10:52;;;;;;;44.45;25.27;;;-1.00;99.90;;;;;;5033258;28;20704;-45
2024/01/19 05:13:19;;;;;;;45.17;23.98;;;-1.00;99.90;;;;;;5031951;28;20106;-41
2024/01/19 05:15:46;;;;;;;44.10;23.58;;;-1.10;99.90;;;;;;5030347;28;20140;-43
2024/01/19 05:18:13;;;;;;;54.33;24.55;;;-1.10;99.90;;;;;;5032090;28;20072;-43
2024/01/19 05:20:40;;;;;;;50.17;24.60;;;-1.00;99.90;;;;;;5030780;28;20398;-44
2024/01/19 05:23:08;;;;;;;46.78;24.45;;;-1.00;99.90;;;;;;5032203;28;20480;-45
2024/01/19 05:25:34;;;;;;;50.95;24.77;;;-1.00;99.90;;;;;;5036226;28;20111;-43
2024/01/19 05:28:03;;;;;;;50.08;26.40;;;-1.10;99.90;;;;;;5038368;28;20103;-43
2024/01/19 05:30:30;;;;;;;48.60;25.83;;;-1.00;99.90;;;;;;5031150;28;20063;-46
2024/01/19 05:32:57;;;;;;;47.15;25.30;;;-1.00;99.90;;;;;;5029709;28;20422;-41
2024/01/19 05:35:24;;;;;;;53.08;27.00;;;-1.00;99.90;;;;;;5031456;28;20034;-44
2024/01/19 05:37:51;;;;;;;52.35;26.63;;;-0.90;99.90;;;;;;5028228;28;20424;-44
2024/01/19 05:40:18;;;;;;;50.42;24.70;;;-1.00;99.90;;;;;;5027685;28;20095;-41
2024/01/19 05:42:46;;;;;;;50.03;25.65;;;-1.00;99.90;;;;;;5027846;28;20045;-44
2024/01/19 05:45:13;;;;;;;51.15;25.65;;;-0.90;99.90;;;;;;5028507;28;20087;-45
2024/01/19 05:47:40;;;;;;;51.65;25.40;;;-0.90;99.90;;;;;;5028894;28;20120;-46
2024/01/19 05:50:09;;;;;;;47.78;23.90;;;-1.00;99.90;;;;;;5029491;28;20041;-45
2024/01/19 05:52:36;;;;;;;47.00;24.45;;;-1.00;99.90;;;;;;5031310;28;20048;-45
2024/01/19 05:55:04;;;;;;;47.55;24.95;;;-1.00;99.90;;;;;;5032071;28;20178;-42
2024/01/19 05:57:32;;;;;;;46.75;24.55;;;-1.10;99.90;;;;;;5027346;28;20419;-42
2024/01/19 05:59:59;;;;;;;53.65;26.40;;;-1.10;99.90;;;;;;5032343;28;20056;-44
2024/01/19 06:02:26;;;;;;;52.30;25.40;;;-1.10;99.90;;;;;;5032079;28;20034;-42
2024/01/19 06:04:55;;;;;;;50.45;24.38;;;-1.10;99.90;;;;;;5029645;28;20055;-43
2024/01/19 06:07:23;;;;;;;49.80;23.60;;;-1.10;99.90;;;;;;5031901;28;20067;-41
2024/01/19 06:09:50;;;;;;;51.47;26.08;;;-1.20;99.90;;;;;;5024226;28;20120;-47
2024/01/19 06:12:17;;;;;;;54.40;27.27;;;-1.20;99.90;;;;;;5033882;28;20408;-46
2024/01/19 06:14:45;;;;;;;53.15;27.45;;;-1.20;99.90;;;;;;5031513;28;20064;-41
2024/01/19 06:17:14;;;;;;;53.58;28.45;;;-1.20;99.90;;;;;;5025410;28;20041;-39
2024/01/19 06:19:41;;;;;;;57.30;27.38;;;-1.20;99.90;;;;;;5031499;28;20191;-46
2024/01/19 06:22:09;;;;;;;49.33;26.55;;;-1.20;99.90;;;;;;5032308;28;20136;-44
2024/01/19 06:24:36;;;;;;;55.80;28.20;;;-1.10;99.90;;;;;;5025820;28;20072;-42
2024/01/19 06:27:04;;;;;;;48.47;26.52;;;-1.20;99.90;;;;;;5033544;28;20056;-43
2024/01/19 06:29:31;;;;;;;47.40;25.35;;;-1.10;99.90;;;;;;5029331;28;20095;-43
2024/01/19 06:31:58;;;;;;;43.30;23.13;;;-1.20;99.90;;;;;;5031922;28;20092;-41
2024/01/19 06:34:26;;;;;;;47.28;25.52;;;-1.20;99.90;;;;;;5031720;28;20037;-42
2024/01/19 06:36:53;;;;;;;47.10;24.55;;;-1.10;99.90;;;;;;5031822;28;20409;-44
2024/01/19 06:39:20;;;;;;;46.58;24.33;;;-1.20;99.90;;;;;;5030897;28;20102;-44
2024/01/19 06:41:48;;;;;;;41.15;22.95;;;-1.20;99.90;;;;;;5030487;28;20110;-42
2024/01/19 06:44:15;;;;;;;44.22;24.08;;;-1.20;99.90;;;;;;5027613;28;20049;-47
2024/01/19 06:46:46;;;;;;;46.10;22.02;;;-1.20;99.90;;;;;;5023234;28;20057;-41
2024/01/19 06:49:13;;;;;;;47.70;24.52;;;-1.20;99.90;;;;;;5026833;28;20120;-44
2024/01/19 06:51:41;;;;;;;41.78;21.20;;;-1.30;99.90;;;;;;5027491;28;20081;-41
2024/01/19 06:54:09;;;;;;;52.25;22.75;;;-1.20;99.90;;;;;;5032332;28;20040;-43
2024/01/19 06:56:36;;;;;;;44.25;22.58;;;-1.30;99.90;;;;;;5028108;28;20043;-44
2024/01/19 06:59:03;;;;;;;48.55;23.92;;;-1.30;99.90;;;;;;5032620;28;20053;-41
2024/01/19 07:01:30;;;;;;;49.70;25.80;;;-1.30;99.90;;;;;;5027137;28;20065;-43
2024/01/19 07:03:57;;;;;;;52.30;24.80;;;-1.30;99.90;;;;;;5030260;28;20080;-43
2024/01/19 07:06:24;;;;;;;52.70;25.95;;;-1.30;99.90;;;;;;5029866;28;20056;-43
2024/01/19 07:08:51;;;;;;;50.05;25.70;;;-1.20;99.90;;;;;;5029837;28;20076;-41
2024/01/19 07:11:20;;;;;;;48.38;25.63;;;-1.20;99.90;;;;;;5029755;28;20056;-41
2024/01/19 07:13:47;;;;;;;49.60;25.90;;;-1.10;99.90;;;;;;5030697;28;20045;-39
2024/01/19 07:16:14;;;;;;;54.63;27.15;;;-1.10;99.90;;;;;;5029644;28;20092;-41
2024/01/19 07:18:41;;;;;;;50.55;26.65;;;-1.20;99.90;;;;;;5031443;28;20034;-42
2024/01/19 07:21:08;;;;;;;54.60;26.83;;;-1.20;99.90;;;;;;5032694;28;20111;-43
2024/01/19 07:23:36;;;;;;;48.80;25.15;;;-1.20;99.90;;;;;;5032053;28;20562;-40
2024/01/19 07:26:03;;;;;;;52.80;25.27;;;-1.10;99.90;;;;;;5029838;28;20063;-41
2024/01/19 07:28:30;;;;;;;53.08;24.90;;;-1.10;99.90;;;;;;5035685;28;20053;-45
2024/01/19 07:30:57;;;;;;;61.67;27.40;;;-1.10;99.90;;;;;;5035173;28;20071;-42
2024/01/19 07:33:25;;;;;;;46.63;22.42;;;-1.10;99.90;;;;;;5034625;28;20049;-41
2024/01/19 07:35:59;;;;;;;43.58;23.10;;;-1.10;99.90;;;;;;5038152;28;20138;-45
2024/01/19 07:38:27;;;;;;;44.00;23.33;;;-1.20;99.90;;;;;;5039151;28;20521;-44
2024/01/19 07:40:54;;;;;;;42.53;21.55;;;-1.20;99.90;;;;;;5040615;28;20456;-44
2024/01/19 07:43:21;;;;;;;43.45;21.58;;;-1.20;99.90;;;;;;5036425;28;20429;-38
2024/01/19 07:45:48;;;;;;;41.53;21.30;;;-1.20;99.90;;;;;;5035373;28;20165;-43
2024/01/19 07:48:15;;;;;;;41.95;19.55;;;-1.10;99.90;;;;;;5038276;28;20037;-45
2024/01/19 07:50:42;;;;;;;38.08;20.58;;;-1.10;99.90;;;;;;5034738;28;20430;-40
2024/01/19 07:53:10;;;;;;;40.88;21.73;;;-1.10;99.90;;;;;;5039114;28;20067;-43
2024/01/19 07:55:37;;;;;;;39.67;20.00;;;-1.10;99.90;;;;;;5035564;28;20597;-41
2024/01/19 07:58:04;;;;;;;41.05;22.52;;;-1.10;99.90;;;;;;5036764;28;20041;-40
2024/01/19 08:00:31;;;;;;;49.25;24.63;;;-1.10;99.90;;;;;;5037769;28;20422;-41
2024/01/19 08:02:59;;;;;;;48.60;24.88;;;-1.10;99.90;;;;;;5038239;28;20046;-41
2024/01/19 08:05:26;;;;;;;49.63;25.08;;;-1.10;99.90;;;;;;5036255;28;20045;-47
2024/01/19 08:07:54;;;;;;;46.28;24.20;;;-1.10;99.90;;;;;;5034714;28;20049;-46
2024/01/19 08:10:21;;;;;;;51.35;25.58;;;-1.10;99.90;;;;;;5035279;28;20049;-44
2024/01/19 08:12:48;;;;;;;49.72;24.48;;;-1.10;99.90;;;;;;5032460;28;20579;-42
2024/01/19 08:15:15;;;;;;;48.78;25.23;;;-1.10;99.90;;;;;;5035279;28;20452;-42
2024/01/19 08:17:42;;;;;;;45.67;23.70;;;-1.00;99.90;;;;;;5036237;28;20053;-46
2024/01/19 08:20:10;;;;;;;43.08;22.05;;;-1.00;99.90;;;;;;5037855;28;20041;-43
2024/01/19 08:22:38;;;;;;;42.80;21.73;;;-1.00;99.90;;;;;;5036474;28;20493;-42
2024/01/19 08:25:05;;;;;;;39.25;21.20;;;-0.90;99.90;;;;;;5032658;28;20049;-43
2024/01/19 08:27:32;;;;;;;41.03;21.83;;;-0.90;99.90;;;;;;5030437;28;20056;-46
2024/01/19 08:29:59;;;;;;;38.58;20.73;;;-0.90;99.90;;;;;;5034890;28;20056;-48
2024/01/19 08:32:26;;;;;;;37.10;20.45;;;-0.90;99.90;;;;;;5031145;28;20128;-45
2024/01/19 08:34:54;;;;;;;39.35;21.02;;;-1.00;99.90;;;;;;5036079;28;20594;-42
2024/01/19 08:37:21;;;;;;;40.47;21.13;;;-1.00;99.90;;;;;;5034056;28;20037;-44
2024/01/19 08:39:48;;;;;;;38.47;20.70;;;-1.00;99.90;;;;;;5032161;28;20037;-43
2024/01/19 08:42:15;;;;;;;42.50;20.70;;;-0.90;99.90;;;;;;5039140;28;20033;-42
2024/01/19 08:44:44;;;;;;;40.30;21.17;;;-0.90;99.90;;;;;;5036834;28;20084;-42
2024/01/19 08:47:12;;;;;;;36.25;19.08;;;-0.80;99.90;;;;;;5033548;28;20454;-43
2024/01/19 08:49:39;;;;;;;38.03;19.52;;;-0.80;99.90;;;;;;5037150;28;20061;-45
2024/01/19 08:52:06;;;;;;;37.67;19.70;;;-0.80;99.90;;;;;;5036768;28;20045;-43
2024/01/19 08:54:33;;;;;;;36.85;18.90;;;-0.70;99.90;;;;;;5035371;28;20048;-44
2024/01/19 08:57:00;;;;;;;37.50;19.33;;;-0.70;99.90;;;;;;5033990;28;20050;-42
2024/01/19 08:59:32;;;;;;;39.47;20.00;;;-0.80;99.90;;;;;;5032541;28;20485;-44
2024/01/19 09:01:59;;;;;;;42.22;20.02;;;-0.70;99.90;;;;;;5034258;28;20129;-42
2024/01/19 09:04:26;;;;;;;36.75;19.52;;;-0.60;99.90;;;;;;5029553;28;20284;-40
2024/01/19 09:06:55;;;;;;;42.63;22.05;;;-0.70;99.90;;;;;;5034362;28;20429;-44
2024/01/19 09:09:24;;;;;;;34.63;19.42;;;-0.60;99.90;;;;;;5032706;28;20045;-44
2024/01/19 09:11:51;;;;;;;39.33;20.10;;;-0.60;99.90;;;;;;5032792;28;20438;-40
2024/01/19 09:14:20;;;;;;;37.97;19.08;;;-0.50;99.90;;;;;;5033379;28;20033;-44
2024/01/19 09:16:47;;;;;;;37.63;19.58;;;-0.50;99.90;;;;;;5028477;28;20052;-39
2024/01/19 09:19:14;;;;;;;33.90;19.88;;;-0.40;99.90;;;;;;5034317;28;20127;-44
2024/01/19 09:21:44;;;;;;;36.75;18.63;;;-0.30;99.90;;;;;;5031679;28;20075;-44
2024/01/19 09:24:11;;;;;;;35.67;19.50;;;-0.10;99.90;;;;;;5031292;28;20053;-43
2024/01/19 09:26:39;;;;;;;38.25;19.33;;;0.00;99.90;;;;;;5032076;28;20041;-42
2024/01/19 09:29:08;;;;;;;36.78;19.65;;;0.00;99.90;;;;;;5031407;28;20041;-43
2024/01/19 09:31:47;;;;;;;38.88;18.90;;;0.00;99.90;;;;;;5033796;28;20146;-40
2024/01/19 09:34:14;;;;;;;32.38;18.08;;;0.10;99.90;;;;;;5029371;28;20037;-42
2024/01/19 09:36:42;;;;;;;38.75;19.13;;;0.10;99.90;;;;;;5031878;28;20052;-40
2024/01/19 09:39:09;;;;;;;35.35;19.27;;;0.00;99.90;;;;;;5033219;28;20048;-43
2024/01/19 09:41:38;;;;;;;39.83;20.80;;;0.00;99.90;;;;;;5032698;28;20477;-49
2024/01/19 09:44:08;;;;;;;35.60;19.02;;;0.00;99.90;;;;;;5030536;28;20049;-45
2024/01/19 09:46:51;;;;;;;37.13;19.80;;;0.10;99.90;;;;;;5030262;28;20455;-41
2024/01/19 09:49:24;;;;;;;40.55;20.30;;;0.20;99.90;;;;;;5030799;28;20452;-40
2024/01/19 09:51:56;;;;;;;30.73;17.33;;;0.30;99.90;;;;;;5031048;28;20091;-42
2024/01/19 09:54:34;;;;;;;33.15;17.88;;;0.40;99.90;;;;;;5031479;28;20128;-41
2024/01/19 09:57:02;;;;;;;33.10;17.35;;;0.50;99.90;;;;;;5033774;28;20181;-43
2024/01/19 09:59:33;;;;;;;31.23;18.27;;;0.50;99.90;;;;;;5032354;28;20034;-41
2024/01/19 10:02:00;;;;;;;36.55;18.23;;;0.50;99.90;;;;;;5030187;28;20041;-39
2024/01/19 10:04:28;;;;;;;35.28;18.30;;;0.50;99.90;;;;;;5028339;28;20497;-45
2024/01/19 10:06:55;;;;;;;31.77;17.02;;;0.60;99.90;;;;;;5031432;28;20053;-42
2024/01/19 10:09:23;;;;;;;31.17;17.55;;;0.60;99.90;;;;;;5033282;28;20112;-43
2024/01/19 10:11:52;;;;;;;28.55;14.90;;;0.50;99.90;;;;;;5029849;28;20083;-42
2024/01/19 10:14:20;;;;;;;24.70;14.68;;;0.30;99.90;;;;;;5033590;28;20036;-41
2024/01/19 10:16:49;;;;;;;27.45;14.98;;;0.40;99.90;;;;;;5031142;28;20053;-47
2024/01/19 10:19:17;;;;;;;22.83;13.27;;;0.50;99.90;;;;;;5029813;28;20529;-42
2024/01/19 10:21:44;;;;;;;25.92;14.77;;;0.30;99.90;;;;;;5027259;28;20048;-43
2024/01/19 10:24:15;;;;;;;26.45;14.60;;;0.10;99.90;;;;;;5032231;28;20041;-41
2024/01/19 10:26:42;;;;;;;;;;;-0.10;99.90;;;;;;5026297;28;20057;-41
2024/01/19 10:29:10;;;;;;;22.83;12.85;;;-0.10;99.90;;;;;;5029726;28;19931;-41
2024/01/19 10:31:38;;;;;;;27.38;14.32;;;0.00;99.90;;;;;;5032284;28;20061;-42
2024/01/19 10:34:19;;;;;;;26.73;12.85;;;0.10;99.90;;;;;;5032576;28;20064;-41
2024/01/19 10:36:48;;;;;;;26.55;13.55;;;0.10;99.90;;;;;;5027803;28;20053;-43
2024/01/19 10:39:23;;;;;;;25.17;13.85;;;0.30;99.90;;;;;;5031275;28;20080;-46
2024/01/19 10:42:02;;;;;;;23.92;13.57;;;0.50;99.90;;;;;;5030138;28;20405;-40
2024/01/19 10:44:29;;;;;;;25.23;14.32;;;0.60;99.90;;;;;;5028961;28;20566;-41
2024/01/19 10:46:56;;;;;;;23.48;13.65;;;0.80;99.90;;;;;;5031364;28;20068;-44
2024/01/19 10:49:24;;;;;;;25.80;14.27;;;1.00;99.90;;;;;;5027032;28;20076;-41
2024/01/19 10:51:52;;;;;;;21.30;13.13;;;1.20;99.90;;;;;;5029419;28;20041;-44
2024/01/19 10:54:24;;;;;;;25.80;13.45;;;1.20;99.90;;;;;;5030376;28;20314;-43
2024/01/19 10:57:03;;;;;;;22.60;13.55;;;1.60;99.90;;;;;;5031939;28;20045;-39
2024/01/19 10:59:30;;;;;;;24.90;14.70;;;2.00;99.90;;;;;;5030550;28;20053;-43
2024/01/19 11:01:59;;;;;;;23.58;15.15;;;2.40;99.90;;;;;;5029681;28;20042;-41
2024/01/19 11:04:26;;;;;;;28.25;14.35;;;2.70;99.90;;;;;;5029192;28;20601;-45
2024/01/19 11:06:54;;;;;;;27.33;15.52;;;2.90;99.90;;;;;;5031538;28;20069;-46
2024/01/19 11:09:22;;;;;;;27.00;14.32;;;3.00;99.90;;;;;;5032057;28;20033;-41
2024/01/19 11:11:57;;;;;;;22.55;13.75;;;3.10;99.90;;;;;;5031735;28;20517;-42
2024/01/19 11:14:26;;;;;;;22.88;14.80;;;3.20;99.90;;;;;;5031852;28;20045;-40
2024/01/19 11:16:56;;;;;;;24.65;14.95;;;3.50;99.90;;;;;;5028752;28;20374;-41
2024/01/19 11:19:24;;;;;;;23.17;14.07;;;3.00;99.90;;;;;;5028754;28;20042;-44
2024/01/19 11:21:52;;;;;;;22.48;14.00;;;2.80;99.90;;;;;;5028766;28;20611;-41
2024/01/19 11:24:20;;;;;;;24.02;14.10;;;2.80;99.90;;;;;;5029859;28;20038;-43
2024/01/19 11:27:09;;;;;;;24.95;15.15;;;3.30;99.90;;;;;;5030563;28;20045;-44
2024/01/19 11:29:41;;;;;;;22.67;14.98;;;3.50;99.90;;;;;;5028108;28;20053;-45
2024/01/19 11:32:11;;;;;;;24.92;15.52;;;3.40;99.90;;;;;;5032352;28;20131;-41
2024/01/19 11:34:45;;;;;;;24.17;15.23;;;3.50;99.90;;;;;;5030004;28;20068;-42
2024/01/19 11:37:44;;;;;;;25.13;14.52;;;3.20;99.90;;;;;;5026307;28;20068;-42
2024/01/19 11:40:24;;;;;;;24.40;14.93;;;2.90;99.90;;;;;;5025813;28;20498;-43
2024/01/19 11:42:52;;;;;;;23.45;14.85;;;3.00;99.90;;;;;;5031058;28;20053;-43
2024/01/19 11:45:27;;;;;;;21.73;13.73;;;3.20;99.90;;;;;;5031906;28;20083;-40
2024/01/19 11:47:57;;;;;;;22.80;13.98;;;3.80;99.90;;;;;;5035732;28;20055;-41
2024/01/19 11:50:45;;;;;;;24.63;14.90;;;3.60;99.90;;;;;;5027666;28;20128;-40
2024/01/19 11:53:13;;;;;;;20.73;13.77;;;4.10;99.90;;;;;;5036512;28;20039;-41
2024/01/19 11:55:45;;;;;;;20.98;12.98;;;4.60;99.90;;;;;;5030894;28;20148;-42
2024/01/19 11:58:29;;;;;;;19.88;12.60;;;4.50;99.90;;;;;;5030335;28;20041;-42
2024/01/19 12:01:00;;;;;;;23.42;13.63;;;4.40;99.90;;;;;;5028566;28;20061;-43
2024/01/19 12:03:27;;;;;;;21.70;14.77;;;4.00;99.90;;;;;;5029798;28;20041;-44
2024/01/19 12:05:57;;;;;;;22.15;14.05;;;4.20;99.90;;;;;;5031446;28;20080;-42
2024/01/19 12:08:25;;;;;;;19.85;14.23;;;4.20;99.90;;;;;;5032889;28;20253;-45
2024/01/19 12:11:04;;;;;;;22.48;13.60;;;3.70;99.90;;;;;;5032959;28;20152;-45
2024/01/19 12:13:33;;;;;;;23.60;13.77;;;3.90;99.90;;;;;;5035519;28;20109;-43
2024/01/19 12:16:02;;;;;;;19.67;13.15;;;3.80;99.90;;;;;;5034046;28;20049;-43
2024/01/19 12:18:32;;;;;;;21.48;14.27;;;3.30;99.90;;;;;;5036754;28;20049;-41
2024/01/19 12:21:00;;;;;;;20.63;13.88;;;2.70;99.90;;;;;;5034096;28;20374;-42
2024/01/19 12:23:32;;;;;;;23.50;14.32;;;2.60;99.90;;;;;;5036581;28;20084;-41
2024/01/19 12:26:03;;;;;;;21.10;14.05;;;2.50;99.90;;;;;;5033691;28;20418;-45
2024/01/19 12:28:34;;;;;;;22.70;14.45;;;2.60;99.90;;;;;;5034443;28;20049;-42
2024/01/19 12:31:01;;;;;;;19.08;12.50;;;2.80;99.90;;;;;;5033635;28;20498;-41
2024/01/19 12:33:29;;;;;;;23.63;13.80;;;2.90;99.90;;;;;;5034450;28;20490;-38
2024/01/19 12:36:11;;;;;;;24.00;13.82;;;2.70;99.90;;;;;;5031115;28;20071;-41